Time;durP1;ratioP1;P1;durP2;ratioP2;P2;SDS_P1;SDS_P2;PMS_P1;PMS_P2;Temp;Humidity;BMP_temperature;BMP_pressure;BME280_temperature;BME280_humidity;BME280_pressure;Samples;Min_cycle;Max_cycle;Signal;HPM_P1;HPM_P2
2021/08/08 00:08:33;;;;;;;1.98;1.10;;;25.40;28.10;;;;;;21165270;28;20043;-62
2021/08/08 00:18:35;;;;;;;2.15;1.20;;;25.20;28.00;;;;;;21231101;27;20051;-65
2021/08/08 00:28:38;;;;;;;3.50;1.20;;;25.10;28.00;;;;;;21248040;27;20057;-67
2021/08/08 00:38:40;;;;;;;1.98;1.15;;;24.90;28.20;;;;;;21248640;27;20047;-65
2021/08/08 00:48:43;;;;;;;2.78;1.02;;;24.80;28.50;;;;;;21248214;27;20400;-63
2021/08/08 00:58:45;;;;;;;2.70;1.30;;;24.70;29.10;;;;;;21229556;28;20051;-64
2021/08/08 01:09:02;;;;;;;3.40;1.02;;;24.70;29.30;;;;;;21248437;28;20055;-64
2021/08/08 01:19:06;;;;;;;3.38;1.00;;;24.60;29.70;;;;;;21248176;28;20048;-61
2021/08/08 01:29:08;;;;;;;1.88;0.80;;;24.50;30.50;;;;;;21247267;28;20091;-63
2021/08/08 01:39:19;;;;;;;2.40;0.85;;;24.30;31.30;;;;;;21247329;27;20138;-66
2021/08/08 01:49:30;;;;;;;2.97;0.90;;;24.20;31.40;;;;;;21262780;27;20054;-63
2021/08/08 01:59:38;;;;;;;6.20;1.75;;;24.10;31.60;;;;;;21245071;27;20055;-65
2021/08/08 02:09:48;;;;;;;4.07;1.80;;;23.90;31.80;;;;;;21268090;27;20097;-65
2021/08/08 02:20:11;;;;;;;1.55;0.80;;;23.80;32.10;;;;;;21261934;27;20047;-64
2021/08/08 02:30:34;;;;;;;1.45;0.82;;;23.80;32.10;;;;;;21293759;27;20080;-62
2021/08/08 02:40:56;;;;;;;2.08;1.17;;;23.70;32.30;;;;;;21257994;27;20104;-63
2021/08/08 02:51:17;;;;;;;2.38;1.38;;;23.70;32.20;;;;;;21256515;27;20047;-64
2021/08/08 03:01:38;;;;;;;5.03;1.00;;;23.70;32.30;;;;;;21256081;27;20088;-63
2021/08/08 03:12:00;;;;;;;4.20;1.13;;;23.60;32.60;;;;;;21254787;27;20053;-63
2021/08/08 03:22:21;;;;;;;3.05;1.75;;;23.40;32.70;;;;;;21255058;27;20043;-67
2021/08/08 03:32:41;;;;;;;3.47;1.20;;;23.40;33.10;;;;;;21238324;27;20191;-68
2021/08/08 03:42:59;;;;;;;4.88;1.20;;;23.30;33.50;;;;;;21252743;27;20058;-64
2021/08/08 03:53:12;;;;;;;5.88;1.10;;;23.10;34.10;;;;;;21253212;27;20130;-67
2021/08/08 04:03:20;;;;;;;4.28;0.93;;;23.00;34.70;;;;;;21250870;27;20100;-67
2021/08/08 04:13:28;;;;;;;2.63;1.27;;;22.90;34.90;;;;;;21251528;27;20096;-67
2021/08/08 04:23:38;;;;;;;1.88;1.15;;;22.50;35.50;;;;;;21254081;27;20058;-68
2021/08/08 04:33:46;;;;;;;5.72;1.60;;;22.30;35.40;;;;;;21251769;27;20051;-68
2021/08/08 04:43:54;;;;;;;2.47;1.05;;;22.40;35.50;;;;;;21250526;27;20075;-69
2021/08/08 04:54:15;;;;;;;4.70;1.25;;;22.30;36.20;;;;;;21251080;28;20441;-68
2021/08/08 05:04:25;;;;;;;3.33;1.40;;;22.10;36.70;;;;;;21231420;28;20407;-68
2021/08/08 05:14:30;;;;;;;1.40;1.00;;;21.80;37.10;;;;;;21249892;27;20047;-69
2021/08/08 05:24:36;;;;;;;2.47;1.30;;;21.60;36.90;;;;;;21264134;27;20173;-63
2021/08/08 05:34:48;;;;;;;4.10;1.23;;;21.50;37.20;;;;;;21263315;27;20047;-64
2021/08/08 05:45:02;;;;;;;3.35;1.50;;;21.20;37.20;;;;;;21263406;27;20135;-67
2021/08/08 05:55:07;;;;;;;4.85;1.23;;;21.00;37.70;;;;;;21261811;27;20055;-64
2021/08/08 06:05:09;;;;;;;2.83;1.00;;;20.70;38.20;;;;;;21261496;27;20138;-65
2021/08/08 06:15:16;;;;;;;4.60;1.02;;;20.70;38.10;;;;;;21260876;27;20064;-68
2021/08/08 06:25:25;;;;;;;2.22;1.33;;;20.50;38.20;;;;;;21260017;27;20053;-68
2021/08/08 06:35:37;;;;;;;6.30;1.48;;;20.50;38.60;;;;;;21259197;27;20047;-63
2021/08/08 06:45:45;;;;;;;4.18;1.20;;;20.60;39.10;;;;;;21258791;27;20051;-70
2021/08/08 06:55:54;;;;;;;2.92;1.08;;;21.10;38.60;;;;;;21240767;27;20054;-69
2021/08/08 07:06:00;;;;;;;4.60;1.20;;;21.60;38.40;;;;;;21255960;27;20233;-67
2021/08/08 07:16:11;;;;;;;3.08;1.38;;;22.10;37.50;;;;;;21255219;27;20077;-70
2021/08/08 07:26:17;;;;;;;5.53;1.30;;;22.40;37.60;;;;;;21253424;27;20051;-69
2021/08/08 07:36:24;;;;;;;2.95;1.10;;;22.90;37.30;;;;;;21253210;27;20043;-70
2021/08/08 07:46:35;;;;;;;3.47;1.05;;;23.60;37.40;;;;;;21253087;27;20054;-71
2021/08/08 07:56:48;;;;;;;3.92;1.10;;;24.20;36.90;;;;;;21252090;27;20043;-70
2021/08/08 08:06:52;;;;;;;3.20;1.30;;;24.60;36.30;;;;;;21253039;27;20054;-64
2021/08/08 08:17:03;;;;;;;3.30;1.20;;;24.80;36.30;;;;;;21253347;27;20047;-68
2021/08/08 08:27:09;;;;;;;2.17;1.20;;;24.80;36.40;;;;;;21251863;27;20069;-71
2021/08/08 08:37:12;;;;;;;3.75;1.35;;;24.60;36.80;;;;;;21250112;27;20443;-71
2021/08/08 08:47:15;;;;;;;5.07;1.83;;;24.50;37.10;;;;;;21251213;27;20050;-71
2021/08/08 08:57:22;;;;;;;2.15;1.15;;;25.20;36.40;;;;;;21245109;27;20055;-63
2021/08/08 09:07:24;;;;;;;3.53;1.30;;;25.90;36.90;;;;;;21222664;27;20055;-60
2021/08/08 09:17:29;;;;;;;1.88;1.10;;;27.00;35.40;;;;;;21270287;27;20050;-61
2021/08/08 09:27:38;;;;;;;3.80;1.50;;;27.50;34.40;;;;;;21271868;27;20051;-59
2021/08/08 09:37:40;;;;;;;4.55;1.10;;;27.60;33.40;;;;;;21237796;27;20067;-60
2021/08/08 09:47:47;;;;;;;2.72;1.15;;;27.80;33.20;;;;;;21273487;27;20078;-65
2021/08/08 09:57:50;;;;;;;3.50;1.20;;;28.00;33.10;;;;;;21273195;27;20043;-69
2021/08/08 10:07:56;;;;;;;3.40;0.90;;;27.90;31.80;;;;;;21219834;27;20047;-71
2021/08/08 10:18:02;;;;;;;2.25;1.00;;;27.60;30.50;;;;;;21175551;28;20047;-70
2021/08/08 10:28:08;;;;;;;4.45;1.20;;;27.30;31.00;;;;;;21174619;28;20111;-70
2021/08/08 10:38:12;;;;;;;2.65;1.00;;;27.40;30.70;;;;;;21185991;28;20055;-67
2021/08/08 10:48:14;;;;;;;1.45;0.82;;;27.60;29.50;;;;;;21186493;28;20047;-71
2021/08/08 10:58:20;;;;;;;3.13;1.08;;;27.70;28.20;;;;;;21173775;28;20400;-71
2021/08/08 11:08:23;;;;;;;2.15;1.00;;;27.70;27.90;;;;;;21169867;28;20055;-71
2021/08/08 11:18:29;;;;;;;3.53;0.90;;;27.90;27.90;;;;;;21169520;28;20446;-70
2021/08/08 11:28:32;;;;;;;2.40;1.30;;;28.00;27.90;;;;;;21168435;28;20090;-69
2021/08/08 11:38:40;;;;;;;2.55;0.90;;;28.20;28.10;;;;;;21150965;28;20048;-70
2021/08/08 11:48:42;;;;;;;4.18;0.95;;;28.40;27.40;;;;;;21169281;28;20130;-70
2021/08/08 11:58:53;;;;;;;4.32;0.98;;;28.50;27.30;;;;;;21167265;28;20413;-70
2021/08/08 12:08:54;;;;;;;2.72;0.95;;;28.70;27.10;;;;;;21167395;28;20088;-71
2021/08/08 12:18:57;;;;;;;2.70;1.33;;;28.60;26.50;;;;;;21151575;28;20415;-70
2021/08/08 12:29:05;;;;;;;3.28;1.42;;;29.00;26.40;;;;;;21095405;28;20056;-71
2021/08/08 12:39:08;;;;;;;4.07;0.98;;;29.30;25.30;;;;;;21125200;28;20054;-70
2021/08/08 12:49:11;;;;;;;2.72;0.70;;;29.40;23.20;;;;;;21082325;28;20059;-70
2021/08/08 12:59:13;;;;;;;2.58;1.05;;;29.40;22.70;;;;;;21084507;28;20048;-69
2021/08/08 13:09:15;;;;;;;2.92;1.10;;;29.70;23.30;;;;;;21079187;28;20122;-71
2021/08/08 13:19:18;;;;;;;1.83;1.00;;;29.80;22.80;;;;;;21077685;28;20040;-70
2021/08/08 13:29:20;;;;;;;1.75;0.90;;;30.10;22.60;;;;;;21076953;28;20056;-69
2021/08/08 13:39:23;;;;;;;1.73;1.10;;;30.10;22.50;;;;;;21083663;28;20048;-69
2021/08/08 13:49:28;;;;;;;3.42;1.85;;;30.10;22.60;;;;;;21091244;28;20052;-69
2021/08/08 13:59:30;;;;;;;3.40;2.80;;;30.30;22.00;;;;;;21092110;28;20044;-69
2021/08/08 14:09:31;;;;;;;3.88;1.00;;;30.20;22.20;;;;;;21092840;28;20097;-71
2021/08/08 14:19:33;;;;;;;2.65;1.48;;;30.40;21.90;;;;;;21092345;28;20051;-72
2021/08/08 14:29:35;;;;;;;4.43;1.08;;;30.40;22.20;;;;;;21092158;28;20056;-67
2021/08/08 14:39:38;;;;;;;2.10;1.00;;;30.40;22.20;;;;;;21093227;28;20067;-69
2021/08/08 14:49:40;;;;;;;1.42;0.93;;;30.80;21.70;;;;;;21139083;28;20456;-68
2021/08/08 14:59:46;;;;;;;1.23;0.80;;;31.10;21.20;;;;;;21107147;28;20070;-69
2021/08/08 15:09:49;;;;;;;4.15;1.25;;;31.00;21.10;;;;;;21092760;28;20040;-69
2021/08/08 15:19:54;;;;;;;2.00;0.95;;;31.00;21.00;;;;;;21088693;28;20066;-70
2021/08/08 15:29:56;;;;;;;1.35;0.90;;;31.00;21.00;;;;;;21088440;28;20052;-72
2021/08/08 15:39:58;;;;;;;1.52;0.80;;;31.10;20.90;;;;;;21085408;28;20055;-72
2021/08/08 15:50:00;;;;;;;1.95;1.20;;;31.30;20.30;;;;;;21084414;28;20052;-70
2021/08/08 16:00:03;;;;;;;2.90;1.40;;;31.30;19.80;;;;;;21083144;28;20492;-71
2021/08/08 16:10:05;;;;;;;2.10;1.08;;;31.30;19.70;;;;;;21081397;28;20047;-72
2021/08/08 16:20:08;;;;;;;3.67;1.40;;;31.20;19.60;;;;;;21081761;28;20052;-71
2021/08/08 16:30:10;;;;;;;2.40;1.00;;;31.10;19.60;;;;;;21079607;28;20056;-68
2021/08/08 16:40:13;;;;;;;1.92;1.20;;;31.20;18.30;;;;;;21079316;28;20044;-70
2021/08/08 16:50:14;;;;;;;2.50;1.13;;;31.20;17.90;;;;;;21077991;28;20048;-72
2021/08/08 17:00:17;;;;;;;2.33;1.25;;;31.20;18.90;;;;;;21081572;28;20058;-71
2021/08/08 17:10:19;;;;;;;4.20;1.20;;;31.10;20.00;;;;;;21081663;28;20107;-71
2021/08/08 17:20:21;;;;;;;1.98;0.90;;;31.10;18.70;;;;;;21096342;28;20052;-73
2021/08/08 17:30:23;;;;;;;2.13;1.38;;;30.90;18.60;;;;;;21092065;28;20511;-70
2021/08/08 17:40:24;;;;;;;2.90;1.15;;;30.80;19.40;;;;;;21095647;28;20040;-71
2021/08/08 17:50:27;;;;;;;2.30;0.95;;;30.70;19.30;;;;;;21093104;28;20056;-68
2021/08/08 18:00:28;;;;;;;2.95;1.00;;;30.70;19.50;;;;;;21093366;28;20415;-70
2021/08/08 18:10:30;;;;;;;3.60;1.70;;;30.50;19.40;;;;;;21092501;28;20142;-71
2021/08/08 18:20:32;;;;;;;4.78;1.25;;;30.40;20.00;;;;;;21091111;28;20135;-69
2021/08/08 18:30:33;;;;;;;4.13;1.60;;;30.30;21.40;;;;;;21089685;28;20192;-72
2021/08/08 18:40:36;;;;;;;3.60;1.50;;;30.20;21.70;;;;;;21091296;28;20040;-74
2021/08/08 18:50:38;;;;;;;4.55;1.50;;;30.10;20.90;;;;;;21091561;28;20052;-68
2021/08/08 19:00:41;;;;;;;4.07;1.80;;;29.90;20.90;;;;;;21130226;28;20055;-68
2021/08/08 19:10:42;;;;;;;3.90;1.55;;;29.70;20.90;;;;;;21109859;28;20099;-69
2021/08/08 19:20:46;;;;;;;3.50;1.80;;;29.50;21.10;;;;;;21092191;28;20084;-71
2021/08/08 19:30:48;;;;;;;5.82;2.30;;;29.40;21.40;;;;;;21085816;28;20056;-70
2021/08/08 19:40:50;;;;;;;3.15;2.30;;;29.20;21.90;;;;;;21082755;28;20048;-70
2021/08/08 19:50:52;;;;;;;6.18;4.72;;;29.10;22.20;;;;;;21083217;28;20423;-68
2021/08/08 20:00:54;;;;;;;3.90;2.78;;;28.90;22.60;;;;;;21084897;28;20044;-71
2021/08/08 20:10:56;;;;;;;4.18;2.30;;;28.80;22.60;;;;;;21084759;28;20051;-68
2021/08/08 20:20:57;;;;;;;6.57;3.25;;;28.70;22.30;;;;;;21065101;28;20067;-68
2021/08/08 20:31:00;;;;;;;11.30;8.35;;;28.50;22.70;;;;;;21148400;28;20047;-70
2021/08/08 20:41:01;;;;;;;9.98;7.13;;;28.30;23.20;;;;;;21170675;28;20457;-68
2021/08/08 20:51:06;;;;;;;5.85;3.78;;;28.10;23.80;;;;;;21205403;27;20411;-70
2021/08/08 21:01:07;;;;;;;5.72;2.40;;;28.10;24.40;;;;;;21168792;28;20403;-67
2021/08/08 21:11:09;;;;;;;8.43;4.97;;;27.90;24.20;;;;;;21163489;28;20105;-66
2021/08/08 21:21:12;;;;;;;15.45;11.70;;;27.80;24.10;;;;;;21162043;28;20488;-67
2021/08/08 21:31:14;;;;;;;12.98;10.18;;;27.60;24.30;;;;;;21161525;28;20056;-72
2021/08/08 21:41:16;;;;;;;6.53;2.50;;;27.50;24.80;;;;;;21162236;28;20380;-72
2021/08/08 21:51:19;;;;;;;7.68;3.30;;;27.30;25.00;;;;;;21161330;28;20052;-73
2021/08/08 22:01:21;;;;;;;6.53;3.25;;;27.10;25.20;;;;;;21169331;28;20557;-73
2021/08/08 22:11:23;;;;;;;6.55;3.38;;;27.00;25.60;;;;;;21207949;28;20048;-72
2021/08/08 22:21:27;;;;;;;7.28;3.70;;;27.00;26.00;;;;;;21185789;28;20048;-72
2021/08/08 22:31:28;;;;;;;9.90;2.80;;;26.90;26.00;;;;;;21175969;28;20047;-66
2021/08/08 22:41:30;;;;;;;6.97;2.22;;;26.90;32.30;;;;;;21174547;28;20054;-71
2021/08/08 22:51:31;;;;;;;;;;;26.60;38.10;;;;;;21174336;28;20071;-69
2021/08/08 23:01:33;;;;;;;6.87;2.70;;;26.30;39.40;;;;;;21175469;28;19966;-67
2021/08/08 23:11:34;;;;;;;7.45;3.00;;;26.20;47.10;;;;;;21170239;28;20055;-68
2021/08/08 23:21:36;;;;;;;6.45;3.30;;;26.10;50.60;;;;;;21170084;28;20048;-71
2021/08/08 23:31:37;;;;;;;;;;;25.90;53.40;;;;;;21168932;28;20112;-71
2021/08/08 23:41:39;;;;;;;5.83;3.23;;;25.80;54.60;;;;;;21167826;28;19934;-71
2021/08/08 23:51:41;;;;;;;6.40;3.50;;;25.60;57.00;;;;;;21166860;28;20047;-71
